Ah Gwah Ching, MN

11:19 AM CDT on October 01, 2014 (GMT -0500)
May Creek Lodge | Change Station
CLOSE
Current Station
Personal Weather Station
Location: Walker, MN
Elevation: 1329 ft
Nearby Weather Stations

Elev 1329 ft 47.10 °N, 94.59 °W | Updated 9 minutes ago

Overcast
Overcast
54.7 °F
Feels Like 54.7 °F
N
0.4
Wind Variable Wind from NW
Gusts 0.4 mph

Today
High -- | Low -- °F
--% Chance of Precip.
Yesterday
High -- | Low -- °F
Precip. -- in
7:17 AM 6:57 PM
Waxing Crescent, 49% visible
Pressure 29.76 in
Visibility 7.0 miles
Clouds Overcast 700 ft
Dew Point 50 °F
Humidity 85%
Rainfall 0.00 in
Snow Depth Not available.
UV 1 out of 12
Pollen 2.60 out of 12
Air Quality Not available.
Flu Activity Not available.
METAR KXVG 011616Z AUTO 14009G16KT 7SM OVC007 11/09 A2976 RMK AO2

More Conditions Fewer Conditions

Pressure 29.76 in
Visibility 7.0 miles
Clouds Overcast 700 ft
Dew Point 50 °F
Humidity 85%
Rainfall 0.00 in
Snow Depth Not available.
UV 1 out of 12
Pollen 2.60 out of 12
Air Quality Not available.
Flu Activity Not available.
METAR KXVG 011616Z AUTO 14009G16KT 7SM OVC007 11/09 A2976 RMK AO2

More Conditions Fewer Conditions

10-Day Weather Forecast

Almanac

Astronomy

Oct. 01, 2014 Rise Set
Actual Time 7:17 AM CDT 6:57 PM CDT
Civil Twilight 6:46 AM CDT 7:28 PM CDT
Nautical Twilight 6:11 AM CDT 8:03 PM CDT
Astronomical Twilight 5:35 AM CDT 8:39 PM CDT
Moon 2:35 PM CDT No Moon Set
Length of Visible Light 12h 41m
Length of Day
11h 40m
Tomorrow will be 3m 20s shorter.
Waxing Crescent, 49% of the Moon is Illuminated
Today
Waxing Crescent
Oct 1
First Quarter
Oct 8
Full
Oct 15
Last Quarter
Oct 23
New

Today's Extremes

State Highs State Lows

Community

WunderPhotos

Upload Photos

1,757,976 photos uploaded!

WunderBlogs® & News

Nearby

Snow Depth

Station Depth Elevation
No new snow has been reported.

Earthquake Activity

City Distance Mag. Time & Date
No recent earthquake activity has been reported nearby.
Minimum magnitude displayed is 2.5.

Coastal Water Temperatures

Place Temperature
No Stations Reporting

Nearby Weather Stations